Warning: Javascript must be enabled to use all the features on this page!


Page Loading - Please Wait...

* We've detected you're using a mobile device. Find our Next Generation Station Page here.
Click to hideNews Bulletins

Peak Streamflow for the Nation

USGS 01512500 CHENANGO RIVER NEAR CHENANGO FORKS NY

Broome County, New York
Hydrologic Unit Code 02050102
Latitude  42°13'05.0", Longitude  75°50'53.3" NAD83
Drainage area 1,483  square miles
Gage datum 871.18 feet above NAVD88
Output formats
Table
Graph
Tab-separated file
peakfq (watstore) format
Reselect output format
Water
Year
Date Gage
Height
(feet)
Stream-
flow
(cfs)
1913 1913-03-27 13.70 35,500
1914 1914-03-28 14.00 37,000
1915 1915-02-25 12.04 27,200
1916 1916-04-02 12.18 27,900
1917 1917-03-28 11.16 23,600
1918 1918-05-14 10.752 22,000
1919 1918-10-31 8.10 11,800
1920 1920-03-27 11.332 24,300
1921 1921-03-10 9.60 17,600
1922 1922-06-12 10.522 21,400
1923 1923-04-06 11.47 25,200
1924 1924-09-30 12.45 29,400
1925 1925-02-12 13.05 31,900
1926 1926-04-10 10.202 20,100
1927 1927-03-14 12.59 30,100
1928 1927-10-19 11.30 24,500
1929 1929-03-15 13.20 32,800
1930 1930-03-08 8.90 15,200
1931 1931-03-27 9.79 18,500
1932 1932-02-13 9.67 18,000
1933 1932-10-06 10.13 19,800
1934 1934-03-05 10.422 20,900
1935 1935-07-08 20.30 96,000
1936 1936-03-18 15.26 50,100
1937 1937-04-07 10.07 21,000
1938 1937-10-24 10.54 23,400
1939 1939-02-21 11.14 25,000
1940 1940-04-09   37,0002
1941 1941-04-07 11.86 29,000
1942 1942-03-17 10.09 21,0005
1943 1942-12-30 14.00 41,0005
1944 1944-03-17 10.94 24,4005
1945 1945-03-22 10.462 22,2005
1946 1946-03-09 9.49 18,0005
1947 1947-04-07 10.35 22,5005
1948 1948-03-22 12.22 32,2005
1949 1948-12-30 9.32 17,8005
1950 1950-04-05 11.84 30,1005
1951 1951-03-31 9.78 19,9005
1952 1952-03-11 9.26 17,6005
1953 1952-12-11 9.29 17,7005
1954 1954-02-17 8.652 14,5005
1955 1955-03-12 10.22 21,4005
1956 1956-04-05 12.19 31,4005
1957 1957-01-23 8.89 15,7005
1958 1958-04-07 10.44 22,4005
1959 1959-01-22 11.321 20,0002,5
1960 1960-04-01 12.00 30,4005
1961 1961-02-26 12.65 34,0005
1962 1962-04-01 9.74 19,2005
1963 1963-03-28 10.95 25,0005
1964 1964-03-06 13.32 37,8005
1965 1965-02-13 7.412 10,6005
1966 1966-02-14 8.742 15,1005
1967 1967-03-29 8.37 13,4005
1968 1968-03-23 9.012 15,9005
1969 1968-11-18 8.94 15,7005
1970 1970-04-03 9.29 17,2005
1971 1971-02-16 10.002 20,4005
1972 1972-06-23 11.19 26,2005,9
1973 1973-01-01 8.91 15,5005
1974 1974-04-05 9.63 18,7005
1975 1975-09-26 11.34 26,9005
1976 1976-02-19 10.092 20,8005
1977 1977-03-14 11.93 30,0005
1978 1977-10-18 9.47 18,0005
1979 1979-03-06 13.58 39,4005
1980 1980-03-22 9.55 18,4005
1981 1981-02-20 10.152 21,1005
1982 1981-10-28 10.272 21,6005
1983 1983-04-16 9.20 16,8005
1984 1983-12-14 12.44 32,8005
1985 1985-03-12 8.95 15,8005
1986 1986-03-15 11.26 26,5005
1987 1986-11-27 9.93 20,1005
1988 1988-03-26 8.702 14,8005
1989 1989-03-31 8.77 15,0005
1990 1990-02-17 8.95 15,8005
1991 1990-10-24 10.76 24,0005
1992 1992-03-27 8.10 12,4005
1993 1993-04-11 12.45 33,5005
1994 1994-04-17 9.58 18,7005
1995 1995-03-08 7.71 11,2005
1996 1996-01-20 12.48 33,7005
1997 1996-12-02 10.80 24,5005
1998 1998-01-09 10.34 22,2005
1999 1999-01-25 9.77 19,6005
2000 2000-02-28 11.10 26,1005
2001 2001-04-10 10.22 21,7005
2002 2002-06-06 8.83 15,5005
2003 2003-03-22 9.81 19,7005
2004 2004-09-18 9.78 19,6005
2005 2005-04-03 14.34 45,4005
2006 2006-06-28 13.74 41,5005
2007 2006-11-17 10.89 25,0005
2008 2008-03-09 9.66 19,1005
2009 2009-03-09 9.53 18,5005
2010 2010-01-25 9.97 20,6005
2011 2011-09-08 14.93 49,5005,9
2012 2012-01-27 8.34 14,0005
2013 2013-08-09 10.48 22,9005
2014 2014-03-30 9.07 16,8005
2015 2015-04-09 9.64 19,2005
2016 2016-02-25 8.74 15,5005
2017 2017-04-07 9.96 20,5005
2018 2018-09-18 10.92 25,1005
2019 2019-02-08 9.02 16,6005
2020 2019-11-01 9.66 19,2005
2021 2020-12-25 11.88 30,2005
?
  Peak Gage-Height Qualification Codes.
?
  Peak Streamflow Qualification Codes.